Time;durP1;ratioP1;P1;durP2;ratioP2;P2;SDS_P1;SDS_P2;PMS_P1;PMS_P2;Temp;Humidity;BMP_temperature;BMP_pressure;BME280_temperature;BME280_humidity;BME280_pressure;Samples;Min_cycle;Max_cycle;Signal;HPM_P1;HPM_P2
2022/03/01 00:01:09;;;;;;;11.10;8.90;;;;;;;;;;5065078;28;24529;-49
2022/03/01 00:03:34;;;;;;;9.18;7.85;;;;;;;;;;5063119;28;24945;-49
2022/03/01 00:05:59;;;;;;;11.00;8.97;;;;;;;;;;5064945;28;24421;-49
2022/03/01 00:08:24;;;;;;;10.82;9.35;;;;;;;;;;5059068;28;24423;-50
2022/03/01 00:10:49;;;;;;;12.27;9.00;;;;;;;;;;5064480;28;24715;-50
2022/03/01 00:13:15;;;;;;;12.00;8.60;;;;;;;;;;5062953;28;24410;-49
2022/03/01 00:15:40;;;;;;;12.93;9.65;;;;;;;;;;5065286;28;24441;-50
2022/03/01 00:18:05;;;;;;;10.60;9.00;;;;;;;;;;5065503;28;24445;-50
2022/03/01 00:20:30;;;;;;;11.30;8.60;;;;;;;;;;5064678;28;25014;-49
2022/03/01 00:22:55;;;;;;;10.80;8.77;;;;;;;;;;5067546;28;24415;-49
2022/03/01 00:25:20;;;;;;;11.33;9.87;;;;;;;;;;5069454;28;24407;-49
2022/03/01 00:27:46;;;;;;;11.15;8.57;;;;;;;;;;5066633;28;24434;-50
2022/03/01 00:30:11;;;;;;;9.40;8.07;;;;;;;;;;5069217;28;24420;-49
2022/03/01 00:32:36;;;;;;;10.77;8.40;;;;;;;;;;5066707;28;24994;-50
2022/03/01 00:35:02;;;;;;;9.37;8.10;;;;;;;;;;5067368;28;24971;-50
2022/03/01 00:37:27;;;;;;;11.00;8.50;;;;;;;;;;5068778;28;24576;-50
2022/03/01 00:39:52;;;;;;;9.73;8.65;;;;;;;;;;5066510;28;24447;-50
2022/03/01 00:42:17;;;;;;;9.38;7.70;;;;;;;;;;5068803;28;24406;-50
2022/03/01 00:44:42;;;;;;;11.30;8.43;;;;;;;;;;5066574;28;24429;-50
2022/03/01 00:47:08;;;;;;;10.00;8.20;;;;;;;;;;5068685;28;24496;-50
2022/03/01 00:49:34;;;;;;;9.82;7.90;;;;;;;;;;5068657;28;24422;-51
2022/03/01 00:51:59;;;;;;;12.88;9.65;;;;;;;;;;5067881;28;24425;-50
2022/03/01 00:54:24;;;;;;;14.17;10.60;;;;;;;;;;5064691;28;24509;-50
2022/03/01 00:56:49;;;;;;;14.43;10.63;;;;;;;;;;5066061;28;24426;-50
2022/03/01 00:59:14;;;;;;;12.33;9.00;;;;;;;;;;5068346;28;24419;-49
2022/03/01 01:01:40;;;;;;;12.35;9.30;;;;;;;;;;5066809;28;24418;-49
2022/03/01 01:04:05;;;;;;;9.10;8.20;;;;;;;;;;5068723;28;24422;-49
2022/03/01 01:06:30;;;;;;;11.25;8.50;;;;;;;;;;5067153;28;24829;-49
2022/03/01 01:08:55;;;;;;;10.37;8.57;;;;;;;;;;5066901;28;24422;-49
2022/03/01 01:11:20;;;;;;;10.63;8.32;;;;;;;;;;5068856;28;24430;-50
2022/03/01 01:13:45;;;;;;;9.80;8.67;;;;;;;;;;5065347;28;24736;-49
2022/03/01 01:16:10;;;;;;;14.43;9.47;;;;;;;;;;5068890;28;25314;-49
2022/03/01 01:18:38;;;;;;;11.45;8.52;;;;;;;;;;5068011;28;24427;-50
2022/03/01 01:21:03;;;;;;;11.70;8.52;;;;;;;;;;5066806;28;24777;-49
2022/03/01 01:23:28;;;;;;;10.00;8.50;;;;;;;;;;5067721;28;24994;-50
2022/03/01 01:25:54;;;;;;;9.40;8.20;;;;;;;;;;5066036;28;24410;-50
2022/03/01 01:28:19;;;;;;;10.73;8.55;;;;;;;;;;5067808;28;24428;-50
2022/03/01 01:30:44;;;;;;;8.70;7.80;;;;;;;;;;5064537;28;25211;-50
2022/03/01 01:33:09;;;;;;;10.27;8.30;;;;;;;;;;5068269;28;24412;-50
2022/03/01 01:35:35;;;;;;;9.50;8.18;;;;;;;;;;5065964;28;24441;-49
2022/03/01 01:38:00;;;;;;;9.10;7.77;;;;;;;;;;5065770;28;25232;-50
2022/03/01 01:40:29;;;;;;;7.97;7.17;;;;;;;;;;5067622;28;24515;-50
2022/03/01 01:42:55;;;;;;;10.32;7.70;;;;;;;;;;5065825;28;24488;-50
2022/03/01 01:45:20;;;;;;;10.27;7.60;;;;;;;;;;5067038;28;25175;-50
2022/03/01 01:47:47;;;;;;;8.57;7.63;;;;;;;;;;5059734;28;24427;-50
2022/03/01 01:50:12;;;;;;;10.18;8.30;;;;;;;;;;5063983;28;24436;-50
2022/03/01 01:52:37;;;;;;;11.07;8.60;;;;;;;;;;5063961;28;24576;-50
2022/03/01 01:55:03;;;;;;;9.90;8.00;;;;;;;;;;5064378;28;24827;-50
2022/03/01 01:57:28;;;;;;;12.37;8.30;;;;;;;;;;5067555;28;25024;-50
2022/03/01 01:59:54;;;;;;;10.87;8.20;;;;;;;;;;5070945;28;24484;-50
2022/03/01 02:02:20;;;;;;;9.30;7.35;;;;;;;;;;5065817;28;25022;-49
2022/03/01 02:04:45;;;;;;;9.00;7.53;;;;;;;;;;5063585;28;24460;-49
2022/03/01 02:07:11;;;;;;;8.60;6.80;;;;;;;;;;5061048;28;24435;-49
2022/03/01 02:09:37;;;;;;;9.20;8.20;;;;;;;;;;5066998;28;24452;-49
2022/03/01 02:12:02;;;;;;;9.10;7.30;;;;;;;;;;5065217;28;24430;-50
2022/03/01 02:14:28;;;;;;;8.65;7.30;;;;;;;;;;5064783;28;24824;-50
2022/03/01 02:16:53;;;;;;;10.38;7.82;;;;;;;;;;5058904;28;24426;-50
2022/03/01 02:19:18;;;;;;;9.10;7.50;;;;;;;;;;5061443;28;24438;-50
2022/03/01 02:21:47;;;;;;;8.17;7.20;;;;;;;;;;5058762;28;24419;-50
2022/03/01 02:24:12;;;;;;;8.70;7.20;;;;;;;;;;5060634;28;24714;-50
2022/03/01 02:26:37;;;;;;;9.40;8.40;;;;;;;;;;5063986;28;24426;-50
2022/03/01 02:29:02;;;;;;;10.60;7.80;;;;;;;;;;5062424;28;24433;-50
2022/03/01 02:31:27;;;;;;;10.17;8.30;;;;;;;;;;5058458;28;24568;-51
2022/03/01 02:33:53;;;;;;;8.35;7.20;;;;;;;;;;5058819;28;24425;-50
2022/03/01 02:36:18;;;;;;;9.70;7.40;;;;;;;;;;5063341;28;24474;-50
2022/03/01 02:38:43;;;;;;;8.80;7.90;;;;;;;;;;5065896;28;25024;-50
2022/03/01 02:41:08;;;;;;;10.52;8.48;;;;;;;;;;5055800;28;24443;-50
2022/03/01 02:43:33;;;;;;;10.07;8.57;;;;;;;;;;5065086;28;24529;-50
2022/03/01 02:45:58;;;;;;;9.85;7.85;;;;;;;;;;5060591;28;24415;-50
2022/03/01 02:48:24;;;;;;;9.67;7.97;;;;;;;;;;5065596;28;24483;-50
2022/03/01 02:50:49;;;;;;;9.40;8.02;;;;;;;;;;5059688;28;25095;-50
2022/03/01 02:53:14;;;;;;;10.00;7.40;;;;;;;;;;5064691;28;24469;-50
2022/03/01 02:55:40;;;;;;;9.03;7.53;;;;;;;;;;5056045;28;24427;-50
2022/03/01 02:58:05;;;;;;;8.10;7.23;;;;;;;;;;5063809;28;24461;-50
2022/03/01 03:00:30;;;;;;;8.60;6.90;;;;;;;;;;5062324;28;24488;-50
2022/03/01 03:02:55;;;;;;;9.02;7.30;;;;;;;;;;5063872;28;24418;-50
2022/03/01 03:05:20;;;;;;;8.60;7.20;;;;;;;;;;5062799;28;24415;-50
2022/03/01 03:07:45;;;;;;;9.18;7.15;;;;;;;;;;5065702;28;24464;-50
2022/03/01 03:10:11;;;;;;;9.95;8.00;;;;;;;;;;5063394;28;24427;-50
2022/03/01 03:12:37;;;;;;;8.25;7.10;;;;;;;;;;5064276;28;24829;-50
2022/03/01 03:15:02;;;;;;;9.30;8.10;;;;;;;;;;5062119;28;24418;-50
2022/03/01 03:17:27;;;;;;;9.20;7.40;;;;;;;;;;5063454;28;24413;-49
2022/03/01 03:19:52;;;;;;;9.40;7.50;;;;;;;;;;5056960;28;20778;-49
2022/03/01 03:22:18;;;;;;;8.80;7.77;;;;;;;;;;5062536;28;24418;-49
2022/03/01 03:24:43;;;;;;;8.60;7.70;;;;;;;;;;5062472;28;24530;-49
2022/03/01 03:27:08;;;;;;;9.65;7.40;;;;;;;;;;5063556;28;24445;-49
2022/03/01 03:29:33;;;;;;;9.17;7.40;;;;;;;;;;5061390;28;24510;-49
2022/03/01 03:31:58;;;;;;;9.80;7.70;;;;;;;;;;5064494;28;24972;-49
2022/03/01 03:34:24;;;;;;;9.38;7.60;;;;;;;;;;5064028;28;24441;-49
2022/03/01 03:36:49;;;;;;;8.10;7.30;;;;;;;;;;5060285;28;24472;-50
2022/03/01 03:39:14;;;;;;;9.30;8.00;;;;;;;;;;5062724;28;24997;-49
2022/03/01 03:41:40;;;;;;;10.10;7.90;;;;;;;;;;5064034;28;24484;-49
2022/03/01 03:44:05;;;;;;;7.67;6.80;;;;;;;;;;5062640;28;24800;-49
2022/03/01 03:46:30;;;;;;;8.73;7.83;;;;;;;;;;5062841;28;24535;-50
2022/03/01 03:48:55;;;;;;;8.60;7.40;;;;;;;;;;5061421;28;24781;-49
2022/03/01 03:51:21;;;;;;;9.15;7.60;;;;;;;;;;5063542;28;24418;-49
2022/03/01 03:53:46;;;;;;;8.67;7.53;;;;;;;;;;5062174;28;24419;-49
2022/03/01 03:56:11;;;;;;;8.65;7.30;;;;;;;;;;5065082;28;24977;-50
2022/03/01 03:58:37;;;;;;;9.00;6.97;;;;;;;;;;5064484;28;25196;-50
2022/03/01 04:01:02;;;;;;;9.87;6.93;;;;;;;;;;5063431;28;24442;-49
2022/03/01 04:03:28;;;;;;;8.57;7.45;;;;;;;;;;5055828;28;24419;-50
2022/03/01 04:05:53;;;;;;;8.28;7.16;;;;;;;;;;5060096;28;24485;-49
2022/03/01 04:08:18;;;;;;;9.53;7.60;;;;;;;;;;5062892;28;24770;-50
2022/03/01 04:10:44;;;;;;;9.15;7.32;;;;;;;;;;5062859;28;24407;-50
2022/03/01 04:13:09;;;;;;;8.55;7.65;;;;;;;;;;5065069;28;24453;-50
2022/03/01 04:15:34;;;;;;;9.07;7.73;;;;;;;;;;5064882;28;24987;-50
2022/03/01 04:17:59;;;;;;;8.23;6.90;;;;;;;;;;5061101;28;24568;-50
2022/03/01 04:20:25;;;;;;;9.60;7.03;;;;;;;;;;5064283;28;24507;-50
2022/03/01 04:22:50;;;;;;;8.73;7.00;;;;;;;;;;5064270;28;24956;-49
2022/03/01 04:25:15;;;;;;;9.07;7.40;;;;;;;;;;5064664;28;24552;-50
2022/03/01 04:27:40;;;;;;;10.40;7.20;;;;;;;;;;5065012;28;24986;-50
2022/03/01 04:30:06;;;;;;;8.17;6.80;;;;;;;;;;5062594;28;24411;-50
2022/03/01 04:32:32;;;;;;;7.47;6.45;;;;;;;;;;5062249;28;24505;-49
2022/03/01 04:34:57;;;;;;;8.10;7.20;;;;;;;;;;5064994;28;24407;-50
2022/03/01 04:37:22;;;;;;;8.27;7.38;;;;;;;;;;5064551;28;24502;-49
2022/03/01 04:39:47;;;;;;;8.57;7.07;;;;;;;;;;5062106;28;25021;-50
2022/03/01 04:42:12;;;;;;;9.00;7.50;;;;;;;;;;5064285;28;24430;-49
2022/03/01 04:44:37;;;;;;;8.03;6.90;;;;;;;;;;5062902;28;24414;-50
2022/03/01 04:47:03;;;;;;;10.00;7.97;;;;;;;;;;5064742;28;24530;-50
2022/03/01 04:49:28;;;;;;;10.70;7.87;;;;;;;;;;5059868;28;24511;-49
2022/03/01 04:51:54;;;;;;;9.93;8.10;;;;;;;;;;5064576;28;24407;-50
2022/03/01 04:54:19;;;;;;;8.68;7.60;;;;;;;;;;5062864;28;24994;-50
2022/03/01 04:56:44;;;;;;;9.00;7.03;;;;;;;;;;5064849;28;24437;-50
2022/03/01 04:59:09;;;;;;;9.75;7.70;;;;;;;;;;5062649;28;24512;-50
2022/03/01 05:01:34;;;;;;;9.63;7.70;;;;;;;;;;5062951;28;24407;-50
2022/03/01 05:03:59;;;;;;;10.02;7.03;;;;;;;;;;5064152;28;24457;-50
2022/03/01 05:06:25;;;;;;;9.90;8.32;;;;;;;;;;5067642;28;24514;-50
2022/03/01 05:08:50;;;;;;;9.95;7.90;;;;;;;;;;5066402;28;24968;-50
2022/03/01 05:11:15;;;;;;;9.30;7.60;;;;;;;;;;5066023;28;24531;-50
2022/03/01 05:13:40;;;;;;;9.07;7.20;;;;;;;;;;5066542;28;24449;-50
2022/03/01 05:16:05;;;;;;;8.00;7.20;;;;;;;;;;5067774;28;24953;-49
2022/03/01 05:18:30;;;;;;;9.20;7.70;;;;;;;;;;5068611;28;24414;-50
2022/03/01 05:20:55;;;;;;;9.63;8.10;;;;;;;;;;5067847;28;24456;-50
2022/03/01 05:23:21;;;;;;;8.97;8.07;;;;;;;;;;5063448;28;24426;-49
2022/03/01 05:25:46;;;;;;;8.20;7.40;;;;;;;;;;5065544;28;24430;-50
2022/03/01 05:28:11;;;;;;;9.75;7.82;;;;;;;;;;5065985;28;24999;-50
2022/03/01 05:30:36;;;;;;;9.70;7.80;;;;;;;;;;5065353;28;24449;-50
2022/03/01 05:33:02;;;;;;;8.00;7.20;;;;;;;;;;5065615;28;24418;-50
2022/03/01 05:35:28;;;;;;;11.45;7.75;;;;;;;;;;5065807;28;25035;-50
2022/03/01 05:37:54;;;;;;;8.75;7.53;;;;;;;;;;5063632;28;24945;-50
2022/03/01 05:40:23;;;;;;;8.88;7.53;;;;;;;;;;5062691;28;24448;-51
2022/03/01 05:42:48;;;;;;;8.40;7.18;;;;;;;;;;5065224;28;24464;-50
2022/03/01 05:45:13;;;;;;;7.57;6.78;;;;;;;;;;5063624;28;24407;-50
2022/03/01 05:47:40;;;;;;;8.53;7.13;;;;;;;;;;5063635;28;24430;-51
2022/03/01 05:50:05;;;;;;;8.20;6.80;;;;;;;;;;5061678;28;24434;-50
2022/03/01 05:52:30;;;;;;;7.43;6.43;;;;;;;;;;5063899;28;24427;-50
2022/03/01 05:54:56;;;;;;;8.90;6.80;;;;;;;;;;5066033;28;24407;-50
2022/03/01 05:57:24;;;;;;;8.25;6.53;;;;;;;;;;5062793;28;24465;-50
2022/03/01 05:59:49;;;;;;;8.85;6.60;;;;;;;;;;5068387;28;24831;-50
2022/03/01 06:02:14;;;;;;;9.43;6.90;;;;;;;;;;5067896;28;25121;-51
2022/03/01 06:04:39;;;;;;;7.32;6.53;;;;;;;;;;5063784;28;24498;-50
2022/03/01 06:07:04;;;;;;;8.10;7.00;;;;;;;;;;5065693;28;24417;-50
2022/03/01 06:09:29;;;;;;;7.63;6.70;;;;;;;;;;5059887;28;25016;-49
2022/03/01 06:11:54;;;;;;;7.83;6.30;;;;;;;;;;5071518;28;24551;-50
2022/03/01 06:14:20;;;;;;;11.25;7.50;;;;;;;;;;5066909;28;24955;-49
2022/03/01 06:16:45;;;;;;;8.25;6.88;;;;;;;;;;5058564;28;24420;-50
2022/03/01 06:19:11;;;;;;;8.97;6.90;;;;;;;;;;5060625;28;24461;-51
2022/03/01 06:21:36;;;;;;;8.50;6.80;;;;;;;;;;5072688;28;24769;-50
2022/03/01 06:24:01;;;;;;;8.00;7.00;;;;;;;;;;5063353;28;24935;-51
2022/03/01 06:26:27;;;;;;;9.03;6.80;;;;;;;;;;5065615;28;24580;-50
2022/03/01 06:28:52;;;;;;;9.20;6.60;;;;;;;;;;5066529;28;24540;-50
2022/03/01 06:31:17;;;;;;;7.03;6.03;;;;;;;;;;5064858;28;24560;-50
2022/03/01 06:33:42;;;;;;;8.23;6.47;;;;;;;;;;5067372;28;24964;-49
2022/03/01 06:36:08;;;;;;;7.50;6.40;;;;;;;;;;5065612;28;24931;-50
2022/03/01 06:38:33;;;;;;;8.17;6.77;;;;;;;;;;5066410;28;24558;-50
2022/03/01 06:40:58;;;;;;;8.55;6.50;;;;;;;;;;5065736;28;24446;-51
2022/03/01 06:43:24;;;;;;;7.10;6.20;;;;;;;;;;5064880;28;24383;-50
2022/03/01 06:45:51;;;;;;;8.05;6.28;;;;;;;;;;5064427;28;24937;-51
2022/03/01 06:48:16;;;;;;;7.20;6.50;;;;;;;;;;5066864;28;24390;-50
2022/03/01 06:50:41;;;;;;;8.10;6.20;;;;;;;;;;5066901;28;24486;-50
2022/03/01 06:53:06;;;;;;;8.20;6.10;;;;;;;;;;5066283;28;24397;-50
2022/03/01 06:55:32;;;;;;;9.40;6.83;;;;;;;;;;5064531;28;24390;-50
2022/03/01 06:57:57;;;;;;;8.10;6.30;;;;;;;;;;5066597;28;24923;-50
2022/03/01 07:00:22;;;;;;;9.03;6.90;;;;;;;;;;5064431;28;24501;-51
2022/03/01 07:02:47;;;;;;;7.67;6.87;;;;;;;;;;5065558;28;24875;-50
2022/03/01 07:05:13;;;;;;;7.90;6.65;;;;;;;;;;5067861;28;24815;-50
2022/03/01 07:07:39;;;;;;;7.72;6.40;;;;;;;;;;5066656;28;24838;-51
2022/03/01 07:10:05;;;;;;;8.40;6.70;;;;;;;;;;5065868;28;25032;-51
2022/03/01 07:12:30;;;;;;;8.75;7.00;;;;;;;;;;5058954;28;24480;-51
2022/03/01 07:14:55;;;;;;;9.00;7.03;;;;;;;;;;5068705;28;24980;-51
2022/03/01 07:17:20;;;;;;;8.77;6.70;;;;;;;;;;5069299;28;24480;-51
2022/03/01 07:19:46;;;;;;;9.00;7.47;;;;;;;;;;5085006;28;24974;-50
2022/03/01 07:22:11;;;;;;;10.40;7.20;;;;;;;;;;5078187;28;24411;-50
2022/03/01 07:24:36;;;;;;;7.65;6.57;;;;;;;;;;5063826;28;24419;-50
2022/03/01 07:27:01;;;;;;;8.33;6.67;;;;;;;;;;5065545;28;24959;-50
2022/03/01 07:29:27;;;;;;;7.83;6.60;;;;;;;;;;5064288;28;24437;-50
2022/03/01 07:31:52;;;;;;;9.10;6.90;;;;;;;;;;5067098;28;24421;-51
2022/03/01 07:34:18;;;;;;;7.77;6.80;;;;;;;;;;5072130;28;24426;-51
2022/03/01 07:36:43;;;;;;;10.87;7.00;;;;;;;;;;5064453;28;24481;-51
2022/03/01 07:39:08;;;;;;;7.37;6.67;;;;;;;;;;5072606;28;25051;-51
2022/03/01 07:41:33;;;;;;;8.03;6.10;;;;;;;;;;5081255;28;24587;-50
2022/03/01 07:43:58;;;;;;;11.00;8.00;;;;;;;;;;5084326;28;24522;-50
2022/03/01 07:46:24;;;;;;;8.57;7.22;;;;;;;;;;5067018;28;24413;-50
2022/03/01 07:48:49;;;;;;;8.10;7.20;;;;;;;;;;5061181;28;24569;-50
2022/03/01 07:51:14;;;;;;;8.55;7.15;;;;;;;;;;5061089;28;24391;-50
2022/03/01 07:53:39;;;;;;;8.37;6.90;;;;;;;;;;5059128;28;24500;-50
2022/03/01 07:56:05;;;;;;;9.60;7.53;;;;;;;;;;5043074;28;24419;-51
2022/03/01 07:58:30;;;;;;;9.23;7.20;;;;;;;;;;5046436;28;24419;-50
2022/03/01 08:00:55;;;;;;;7.60;6.80;;;;;;;;;;5065939;28;24399;-50
2022/03/01 08:03:20;;;;;;;8.27;6.90;;;;;;;;;;5063615;28;24426;-50
2022/03/01 08:05:45;;;;;;;8.60;7.60;;;;;;;;;;5062462;28;24816;-50
2022/03/01 08:08:11;;;;;;;10.63;8.10;;;;;;;;;;5061116;28;24488;-49
2022/03/01 08:10:36;;;;;;;8.18;7.25;;;;;;;;;;5044151;28;24402;-50
2022/03/01 08:13:02;;;;;;;10.40;7.93;;;;;;;;;;5050268;28;25295;-49
2022/03/01 08:15:27;;;;;;;10.30;8.00;;;;;;;;;;5063516;28;24399;-49
2022/03/01 08:17:54;;;;;;;9.07;7.38;;;;;;;;;;5059225;28;24442;-49
2022/03/01 08:20:19;;;;;;;10.15;7.70;;;;;;;;;;5044270;28;24487;-50
2022/03/01 08:22:44;;;;;;;10.17;7.70;;;;;;;;;;5063039;28;24875;-50
2022/03/01 08:25:10;;;;;;;9.90;7.70;;;;;;;;;;5064021;28;24830;-50
2022/03/01 08:27:35;;;;;;;9.32;7.35;;;;;;;;;;5061016;28;24434;-50
2022/03/01 08:30:00;;;;;;;9.17;7.97;;;;;;;;;;5043500;28;24473;-49
2022/03/01 08:32:25;;;;;;;8.65;7.85;;;;;;;;;;5046971;28;24427;-50
2022/03/01 08:34:50;;;;;;;10.38;8.70;;;;;;;;;;5061359;28;24415;-50
2022/03/01 08:37:15;;;;;;;9.53;8.30;;;;;;;;;;5061091;28;24418;-49
2022/03/01 08:39:41;;;;;;;9.65;8.00;;;;;;;;;;5045357;28;24985;-50
2022/03/01 08:42:06;;;;;;;10.38;8.43;;;;;;;;;;5048351;28;24544;-50
2022/03/01 08:44:31;;;;;;;10.30;8.60;;;;;;;;;;5054512;28;24502;-49
2022/03/01 08:46:56;;;;;;;8.73;7.83;;;;;;;;;;5067709;28;24472;-49
2022/03/01 08:49:21;;;;;;;8.67;7.73;;;;;;;;;;5069207;28;24459;-49
2022/03/01 08:51:47;;;;;;;11.67;8.70;;;;;;;;;;5059892;28;24523;-49
2022/03/01 08:54:12;;;;;;;9.55;8.23;;;;;;;;;;5048783;28;24406;-50
2022/03/01 08:56:37;;;;;;;10.48;8.18;;;;;;;;;;5064773;28;24427;-49
2022/03/01 08:59:05;;;;;;;9.03;8.13;;;;;;;;;;5065401;28;24448;-49
2022/03/01 09:01:30;;;;;;;8.50;7.55;;;;;;;;;;5066055;28;24499;-50
2022/03/01 09:03:55;;;;;;;9.63;7.80;;;;;;;;;;5069059;28;24487;-48
2022/03/01 09:06:20;;;;;;;8.05;7.25;;;;;;;;;;5066822;28;24558;-49
2022/03/01 09:08:45;;;;;;;7.90;6.47;;;;;;;;;;5067328;28;24445;-50
2022/03/01 09:11:11;;;;;;;10.57;7.13;;;;;;;;;;5067526;28;24435;-50
2022/03/01 09:13:38;;;;;;;7.28;6.40;;;;;;;;;;5067041;28;24473;-49
2022/03/01 09:16:03;;;;;;;7.50;6.50;;;;;;;;;;5060538;28;24859;-49
2022/03/01 09:18:28;;;;;;;8.30;6.60;;;;;;;;;;5064306;28;24445;-49
2022/03/01 09:20:54;;;;;;;7.70;6.90;;;;;;;;;;5058125;28;24480;-49
2022/03/01 09:23:19;;;;;;;8.45;7.30;;;;;;;;;;5045111;28;24387;-49
2022/03/01 09:25:44;;;;;;;9.07;6.90;;;;;;;;;;5048031;28;24860;-49
2022/03/01 09:28:09;;;;;;;9.77;7.10;;;;;;;;;;5062833;28;24762;-50
2022/03/01 09:30:35;;;;;;;8.10;7.00;;;;;;;;;;5053699;28;25007;-49
2022/03/01 09:33:00;;;;;;;9.43;7.38;;;;;;;;;;5046327;28;24403;-49
2022/03/01 09:35:25;;;;;;;8.60;6.93;;;;;;;;;;5058348;28;24862;-49
2022/03/01 09:37:51;;;;;;;7.30;6.50;;;;;;;;;;5065884;28;24993;-50
2022/03/01 09:40:16;;;;;;;7.85;6.80;;;;;;;;;;5051907;28;25087;-50
2022/03/01 09:42:42;;;;;;;8.03;7.07;;;;;;;;;;5048211;28;24410;-49
2022/03/01 09:45:08;;;;;;;7.93;7.13;;;;;;;;;;5059104;28;24415;-50
2022/03/01 09:47:34;;;;;;;7.63;6.80;;;;;;;;;;5067383;28;24441;-50
2022/03/01 09:49:59;;;;;;;8.07;6.90;;;;;;;;;;5063106;28;24481;-49
2022/03/01 09:52:24;;;;;;;9.80;7.03;;;;;;;;;;5065087;28;24406;-50
2022/03/01 09:54:50;;;;;;;8.27;7.47;;;;;;;;;;5068025;28;24533;-49
2022/03/01 09:57:16;;;;;;;7.68;6.90;;;;;;;;;;5065907;28;24402;-49
2022/03/01 09:59:41;;;;;;;8.30;6.50;;;;;;;;;;5066818;28;24439;-49
2022/03/01 10:02:07;;;;;;;9.40;7.30;;;;;;;;;;5067883;28;25016;-49
2022/03/01 10:04:32;;;;;;;8.00;7.20;;;;;;;;;;5067922;28;24560;-49
2022/03/01 10:06:57;;;;;;;8.82;6.88;;;;;;;;;;5066434;28;24558;-49
2022/03/01 10:09:23;;;;;;;10.60;7.40;;;;;;;;;;5065691;28;24979;-49
2022/03/01 10:11:49;;;;;;;8.60;7.30;;;;;;;;;;5065623;28;24438;-49
2022/03/01 10:14:14;;;;;;;8.05;7.00;;;;;;;;;;5067612;28;24414;-49
2022/03/01 10:16:44;;;;;;;7.80;7.10;;;;;;;;;;5065837;28;24402;-49
2022/03/01 10:19:14;;;;;;;8.48;6.90;;;;;;;;;;5065309;28;24438;-50
2022/03/01 10:21:40;;;;;;;8.52;7.30;;;;;;;;;;5065270;28;24410;-49
2022/03/01 10:24:05;;;;;;;8.10;7.27;;;;;;;;;;5067753;28;24389;-50
2022/03/01 10:26:31;;;;;;;8.50;7.30;;;;;;;;;;5065285;28;25046;-50
2022/03/01 10:28:57;;;;;;;8.60;7.07;;;;;;;;;;5067689;28;24387;-51
2022/03/01 10:31:24;;;;;;;7.95;7.15;;;;;;;;;;5066627;28;24850;-50
2022/03/01 10:34:02;;;;;;;7.95;6.40;;;;;;;;;;5067200;28;24513;-51
2022/03/01 10:36:28;;;;;;;8.00;7.20;;;;;;;;;;5065285;28;24394;-50
2022/03/01 10:38:54;;;;;;;8.20;7.40;;;;;;;;;;5065218;28;24573;-51
2022/03/01 10:41:24;;;;;;;8.27;7.10;;;;;;;;;;5066599;28;24781;-51
2022/03/01 10:43:57;;;;;;;8.15;6.97;;;;;;;;;;5065173;28;24620;-52
2022/03/01 10:46:23;;;;;;;7.40;6.60;;;;;;;;;;5066936;28;24901;-51
2022/03/01 10:48:57;;;;;;;7.68;6.85;;;;;;;;;;5066917;28;24977;-50
2022/03/01 10:51:22;;;;;;;8.13;6.78;;;;;;;;;;5064356;28;24538;-51
2022/03/01 10:53:48;;;;;;;9.00;8.10;;;;;;;;;;5065009;28;24952;-51
2022/03/01 10:56:13;;;;;;;8.00;7.20;;;;;;;;;;5066820;28;24403;-50
2022/03/01 10:58:40;;;;;;;7.93;7.10;;;;;;;;;;5066829;28;25329;-50
2022/03/01 11:01:09;;;;;;;7.90;7.10;;;;;;;;;;5064744;28;24387;-51
2022/03/01 11:03:34;;;;;;;8.23;7.43;;;;;;;;;;5063378;28;24465;-50
2022/03/01 11:06:00;;;;;;;8.82;7.03;;;;;;;;;;5066842;28;24454;-50
2022/03/01 11:08:30;;;;;;;9.30;7.53;;;;;;;;;;5066775;28;24387;-51
2022/03/01 11:10:57;;;;;;;7.80;7.00;;;;;;;;;;5064754;28;24528;-50
2022/03/01 11:13:24;;;;;;;8.80;7.70;;;;;;;;;;5062273;28;24411;-51
2022/03/01 11:16:07;;;;;;;9.27;7.40;;;;;;;;;;5066481;28;24413;-51
2022/03/01 11:18:47;;;;;;;8.68;7.70;;;;;;;;;;5064036;28;24908;-51
2022/03/01 11:21:13;;;;;;;8.60;7.53;;;;;;;;;;5065774;28;24407;-51
2022/03/01 11:23:40;;;;;;;8.10;7.30;;;;;;;;;;5066201;28;24402;-51
2022/03/01 11:26:10;;;;;;;8.90;7.80;;;;;;;;;;5064348;28;24456;-51
2022/03/01 11:28:41;;;;;;;7.68;6.80;;;;;;;;;;5066206;28;24399;-52
2022/03/01 11:31:20;;;;;;;7.80;7.00;;;;;;;;;;5065648;28;24422;-51
2022/03/01 11:33:54;;;;;;;7.68;6.75;;;;;;;;;;5065970;28;24441;-51
2022/03/01 11:36:20;;;;;;;7.30;6.50;;;;;;;;;;5066420;28;24825;-51
2022/03/01 11:38:46;;;;;;;7.30;6.60;;;;;;;;;;5064138;28;24437;-51
2022/03/01 11:41:15;;;;;;;8.07;6.80;;;;;;;;;;5065041;28;24770;-50
2022/03/01 11:43:40;;;;;;;9.18;7.35;;;;;;;;;;5065730;28;24482;-51
2022/03/01 11:46:17;;;;;;;8.75;7.85;;;;;;;;;;5066211;28;24478;-50
2022/03/01 11:48:49;;;;;;;9.02;7.65;;;;;;;;;;5062712;28;24836;-50
2022/03/01 11:51:14;;;;;;;7.80;7.00;;;;;;;;;;5062724;28;24952;-50
2022/03/01 11:53:41;;;;;;;8.30;7.40;;;;;;;;;;5063027;28;24476;-50
2022/03/01 11:56:07;;;;;;;10.20;8.02;;;;;;;;;;5064029;28;24398;-51
2022/03/01 11:58:37;;;;;;;8.70;7.68;;;;;;;;;;5065417;28;24513;-51
2022/03/01 12:01:06;;;;;;;9.75;8.35;;;;;;;;;;5065597;28;24425;-51
2022/03/01 12:03:32;;;;;;;9.35;7.95;;;;;;;;;;5063566;28;25041;-51
2022/03/01 12:05:57;;;;;;;9.73;7.22;;;;;;;;;;5062169;28;24407;-50
2022/03/01 12:08:23;;;;;;;10.40;7.80;;;;;;;;;;5065696;28;24479;-50
2022/03/01 12:10:56;;;;;;;7.80;7.00;;;;;;;;;;5059159;28;24422;-50
2022/03/01 12:13:32;;;;;;;8.25;6.97;;;;;;;;;;5060495;28;25055;-51
2022/03/01 12:15:57;;;;;;;11.60;8.05;;;;;;;;;;5061777;28;24454;-51
2022/03/01 12:18:29;;;;;;;8.50;7.30;;;;;;;;;;5060321;28;24972;-51
2022/03/01 12:20:59;;;;;;;10.45;7.75;;;;;;;;;;5062148;28;24619;-50
2022/03/01 12:23:26;;;;;;;8.10;6.80;;;;;;;;;;5061940;28;24399;-50
2022/03/01 12:25:51;;;;;;;9.50;6.70;;;;;;;;;;5061871;28;25656;-50
2022/03/01 12:28:16;;;;;;;9.48;7.35;;;;;;;;;;5064979;28;24980;-51
2022/03/01 12:30:43;;;;;;;8.90;7.63;;;;;;;;;;5062852;28;24407;-56
2022/03/01 12:33:13;;;;;;;7.90;7.10;;;;;;;;;;5065473;28;24473;-50
2022/03/01 12:35:38;;;;;;;9.60;7.60;;;;;;;;;;5063320;28;24423;-51
2022/03/01 12:38:08;;;;;;;7.80;7.00;;;;;;;;;;5065408;28;24406;-50
2022/03/01 12:40:33;;;;;;;9.70;7.50;;;;;;;;;;5062987;28;24509;-50
2022/03/01 12:42:59;;;;;;;9.25;8.10;;;;;;;;;;5064773;28;24437;-50
2022/03/01 12:45:34;;;;;;;10.70;8.60;;;;;;;;;;5065340;28;24973;-50
2022/03/01 12:48:00;;;;;;;9.77;8.10;;;;;;;;;;5063635;28;24482;-50
2022/03/01 12:50:25;;;;;;;9.57;8.37;;;;;;;;;;5065468;28;24502;-50
2022/03/01 12:52:54;;;;;;;10.60;8.40;;;;;;;;;;5063391;28;24540;-51
2022/03/01 12:55:19;;;;;;;11.40;8.87;;;;;;;;;;5063748;28;24435;-51
2022/03/01 12:57:45;;;;;;;10.20;7.80;;;;;;;;;;5063342;28;24391;-50
2022/03/01 13:00:10;;;;;;;10.52;8.25;;;;;;;;;;5065465;28;24410;-50
2022/03/01 13:02:35;;;;;;;11.17;8.30;;;;;;;;;;5064757;28;24830;-51
2022/03/01 13:05:03;;;;;;;11.00;8.33;;;;;;;;;;5064675;28;24437;-51
2022/03/01 13:07:29;;;;;;;11.65;8.25;;;;;;;;;;5063762;28;24478;-51
2022/03/01 13:10:01;;;;;;;8.75;7.82;;;;;;;;;;5064990;28;24537;-50
2022/03/01 13:12:26;;;;;;;11.93;7.53;;;;;;;;;;5063141;28;24441;-51
2022/03/01 13:14:54;;;;;;;8.20;7.22;;;;;;;;;;5064559;28;24781;-50
2022/03/01 13:17:19;;;;;;;9.88;8.20;;;;;;;;;;5064691;28;24945;-50
2022/03/01 13:19:44;;;;;;;10.13;8.43;;;;;;;;;;5063019;28;24438;-49
2022/03/01 13:22:11;;;;;;;12.15;8.90;;;;;;;;;;5063310;28;24869;-51
2022/03/01 13:24:42;;;;;;;10.67;7.97;;;;;;;;;;5064874;28;24442;-50
2022/03/01 13:27:13;;;;;;;10.70;8.43;;;;;;;;;;5065802;28;24391;-50
2022/03/01 13:29:40;;;;;;;10.52;8.20;;;;;;;;;;5068426;28;24399;-51
2022/03/01 13:32:05;;;;;;;9.80;8.10;;;;;;;;;;5068204;28;24975;-50
2022/03/01 13:34:31;;;;;;;11.90;7.87;;;;;;;;;;5068240;28;24427;-50
2022/03/01 13:36:59;;;;;;;10.03;7.90;;;;;;;;;;5064452;28;24423;-50
2022/03/01 13:39:24;;;;;;;8.77;7.20;;;;;;;;;;5067873;28;24796;-50
2022/03/01 13:41:56;;;;;;;10.70;8.00;;;;;;;;;;5065998;28;24951;-51
2022/03/01 13:44:22;;;;;;;9.82;8.00;;;;;;;;;;5068095;28;24976;-51
2022/03/01 13:46:54;;;;;;;9.65;8.10;;;;;;;;;;5064694;28;24456;-50
2022/03/01 13:49:40;;;;;;;9.65;8.07;;;;;;;;;;5066837;28;24415;-50
2022/03/01 13:52:07;;;;;;;9.10;7.43;;;;;;;;;;5066009;28;24885;-51
2022/03/01 13:54:32;;;;;;;10.57;8.15;;;;;;;;;;5066795;28;24502;-50
2022/03/01 13:56:57;;;;;;;9.95;8.02;;;;;;;;;;5065232;28;24536;-50
2022/03/01 13:59:22;;;;;;;10.23;7.80;;;;;;;;;;5061576;28;24505;-50
2022/03/01 14:01:48;;;;;;;10.43;8.10;;;;;;;;;;5065898;28;24378;-50
2022/03/01 14:04:13;;;;;;;9.80;7.45;;;;;;;;;;5066282;28;24419;-50
2022/03/01 14:06:46;;;;;;;10.77;7.93;;;;;;;;;;5066059;28;24845;-50
2022/03/01 14:09:12;;;;;;;8.98;7.97;;;;;;;;;;5066686;28;24757;-50
2022/03/01 14:11:38;;;;;;;8.52;7.72;;;;;;;;;;5067396;28;24491;-51
2022/03/01 14:14:13;;;;;;;9.07;7.53;;;;;;;;;;5050717;28;24856;-51
2022/03/01 14:16:42;;;;;;;8.57;7.20;;;;;;;;;;5046096;28;25169;-50
2022/03/01 14:19:07;;;;;;;8.60;6.90;;;;;;;;;;5053974;28;24441;-51
2022/03/01 14:21:32;;;;;;;8.90;7.95;;;;;;;;;;5064851;28;24419;-51
2022/03/01 14:23:58;;;;;;;9.13;7.60;;;;;;;;;;5077941;28;25316;-50
2022/03/01 14:26:24;;;;;;;8.90;7.20;;;;;;;;;;5087840;28;24900;-50
2022/03/01 14:29:00;;;;;;;8.00;7.20;;;;;;;;;;5050277;28;24928;-51
2022/03/01 14:31:26;;;;;;;9.20;7.50;;;;;;;;;;5047370;28;24439;-51
2022/03/01 14:33:51;;;;;;;10.00;7.82;;;;;;;;;;5055931;28;24423;-51